Home > Products > Valid Products > TAF

000
FTUS44 KMEG 301400 AAA
TAFMEM
TAF AMD
KMEM 301458Z 3015/3112 22005KT P6SM BKN250
     FM302000 29007KT P6SM FEW070 BKN150
     FM310600 VRB03KT P6SM VCSH SCT050 OVC090=



000
FTUS44 KMEG 301100
TAFJBR
TAF
KJBR 301120Z 3012/3112 00000KT P6SM SCT250
     FM301400 21006KT P6SM FEW060 BKN250
     FM301900 24008KT P6SM SCT060 BKN150
     FM310300 VRB03KT P6SM VCSH SCT040 OVC090=



000
FTUS44 KMEG 301100
TAFTUP
TAF
KTUP 301120Z 3012/3112 VRB03KT P6SM SCT250
     FM301600 03005KT P6SM BKN250
     FM302200 03005KT P6SM BKN150
     FM310900 VRB03KT P6SM OVC120=



000
FTUS44 KMEG 301100
TAFMEM
TAF
KMEM 301120Z 3012/3112 18003KT P6SM SCT250
     FM301500 22005KT P6SM FEW150 BKN250
     FM302000 29007KT P6SM FEW070 BKN150
     FM310600 VRB03KT P6SM VCSH SCT050 OVC090=



000
FTUS44 KMEG 301100
TAFMKL
TAF
KMKL 301120Z 3012/3112 00000KT P6SM SCT250
     FM301500 VRB03KT P6SM BKN250
     FM302100 30006KT P6SM BKN150
     FM310900 VRB02KT P6SM OVC120=



000
FTUS44 KMEG 300900 AAA
TAFMEM
TAF AMD
KMEM 300900Z 3009/3106 09003KT P6SM SCT250
     FM301500 21005KT P6SM FEW150 BKN250
     FM302000 26007KT P6SM FEW090 BKN150
     FM310200 12003KT P6SM FEW040 OVC090=



000
FTUS44 KMEG 300700 AAA
TAFMKL
TAF AMD
KMKL 300759Z 3008/3106 00000KT 5SM BR SCT250
      TEMPO 3008/3012 2SM BR
     FM301500 22004KT P6SM FEW150 BKN250
     FM302100 26006KT P6SM FEW090 BKN150
     FM310300 VRB02KT P6SM FEW040 OVC090=



000
FTUS44 KMEG 300500
TAFTUP
TAF
KTUP 300521Z 3006/3106 00000KT P6SM SCT250
     FM301600 03005KT P6SM FEW150 BKN250
     FM302200 02003KT P6SM FEW090 BKN150
     FM310400 02003KT P6SM FEW040 BKN090=



000
FTUS44 KMEG 300500
TAFJBR
TAF
KJBR 300521Z 3006/3106 00000KT P6SM SCT250
     FM301400 21006KT P6SM FEW150 BKN250
     FM301900 23008KT P6SM SCT090 BKN150
     FM310100 22004KT P6SM VCSH SCT040 OVC090=



000
FTUS44 KMEG 300500
TAFMEM
TAF
KMEM 300521Z 3006/3106 09003KT P6SM SCT250
     FM301500 21005KT P6SM FEW150 BKN250
     FM302000 26007KT P6SM FEW090 BKN150
     FM310200 12003KT P6SM FEW040 OVC090=



000
FTUS44 KMEG 300500
TAFMKL
TAF
KMKL 300521Z 3006/3106 00000KT P6SM SCT250
      TEMPO 3008/3012 4SM BR
     FM301500 22004KT P6SM FEW150 BKN250
     FM302100 26006KT P6SM FEW090 BKN150
     FM310300 VRB02KT P6SM FEW040 OVC090=



000
FTUS44 KMEG 300300 AAA
TAFMEM
TAF AMD
KMEM 300301Z 3003/3024 09003KT P6SM FEW250
     FM301500 21006KT P6SM FEW150 BKN250
     FM302200 28006KT P6SM FEW070 BKN150=



000
FTUS44 KMEG 292300
TAFMKL
TAF
KMKL 292323Z 3000/3024 00000KT P6SM FEW250
      TEMPO 3008/3012 4SM BR
     FM301500 22004KT P6SM FEW150 BKN250
     FM302300 29006KT P6SM FEW070 BKN150=



000
FTUS44 KMEG 292300
TAFTUP
TAF
KTUP 292323Z 3000/3024 04006KT P6SM SCT050
     FM300200 00000KT P6SM FEW250
     FM301600 03005KT P6SM FEW150 BKN250
     FM302300 VRB03KT P6SM FEW070 BKN150=



000
FTUS44 KMEG 292300
TAFMEM
TAF
KMEM 292323Z 3000/3024 03006KT P6SM SCT050
     FM300300 09003KT P6SM SCT250
     FM301500 21006KT P6SM FEW150 BKN250
     FM302200 28006KT P6SM FEW070 BKN150=



000
FTUS44 KMEG 292300
TAFJBR
TAF
KJBR 292323Z 3000/3024 00000KT P6SM SCT250
     FM301400 21006KT P6SM FEW150 BKN250
     FM302100 23008KT P6SM SCT070 BKN150=



000
FTUS44 KMEG 292000 AAA
TAFMEM
TAF AMD
KMEM 292035Z 2921/3018 32009KT P6SM FEW050
     FM300000 04003KT P6SM SCT250
     FM301600 19006KT P6SM BKN250=



000
FTUS44 KMEG 291700
TAFTUP
TAF
KTUP 291720Z 2918/3018 02008KT P6SM SCT050
     FM300000 00000KT P6SM SCT250
     FM301500 03004KT P6SM BKN250=



000
FTUS44 KMEG 291700
TAFMKL
TAF
KMKL 291720Z 2918/3018 03005KT P6SM SCT050
     FM300000 00000KT P6SM SCT250
      TEMPO 3008/3012 4SM BR
     FM301600 18003KT P6SM BKN250=



000
FTUS44 KMEG 291700
TAFMEM
TAF
KMEM 291720Z 2918/3018 04009KT P6SM SCT050
     FM300000 04003KT P6SM SCT250
     FM301600 19006KT P6SM BKN250=



000
FTUS44 KMEG 291700
TAFJBR
TAF
KJBR 291720Z 2918/3018 05007KT P6SM SCT050
     FM300000 00000KT P6SM SCT250
     FM301500 22006KT P6SM BKN250=



000
FTUS44 KMEG 291400 AAB
TAFMEM
TAF AMD
KMEM 291500Z 2915/3012 03009KT P6SM FEW045
     FM291700 36008KT P6SM SCT060
     FM300000 04003KT P6SM SCT250=



000
FTUS44 KMEG 291400 AAA
TAFMEM
TAF AMD
KMEM 291428Z 2914/3012 05007KT P6SM FEW080 FEW250
     FM291600 36008KT P6SM SCT060
     FM300000 04003KT P6SM SCT250=



000
FTUS44 KMEG 291100 RRA
TAFTUP
TAF
KTUP 291151Z 2912/3012 36005KT P6SM SCT050 BKN080
      TEMPO 2912/2915 BKN050
     FM291500 02009KT P6SM SCT060
     FM300000 VRB02KT P6SM SCT250=



000
FTUS44 KMEG 291100 RRA
TAFJBR
TAF
KJBR 291151Z 2912/3012 36005KT P6SM SKC
     FM291500 03007KT P6SM SCT060
     FM300000 VRB02KT P6SM SCT250=



000
FTUS44 KMEG 291100 RRA
TAFMKL
TAF
KMKL 291151Z 2912/3012 36004KT P6SM SKC
     FM291500 01007KT P6SM SCT060
     FM300000 00000KT P6SM SCT250=



000
FTUS44 KMEG 291100 RRA
TAFMEM
TAF
KMEM 291151Z 2912/3012 34008KT P6SM FEW060 SCT080
     FM291500 36008KT P6SM SCT060
     FM300000 04003KT P6SM SCT250=



000
FTUS44 KMEG 290900 AAA
TAFMEM
TAF AMD
KMEM 290914Z 2909/3006 04010KT P6SM BKN050
     FM291200 04008KT P6SM SCT080
     FM291500 02009KT P6SM FEW060 SCT250
     FM300000 05004KT P6SM BKN250=



000
FTUS44 KMEG 290500
TAFJBR
TAF
KJBR 290536Z 2906/3006 36005KT P6SM SCT080 SCT250
     FM291500 03007KT P6SM FEW060 SCT250
     FM300000 VRB02KT P6SM BKN250=



000
FTUS44 KMEG 290500
TAFTUP
TAF
KTUP 290536Z 2906/3006 36005KT P6SM FEW080 SCT250
     FM291500 02008KT P6SM FEW060 SCT250
     FM300000 VRB02KT P6SM BKN250=



000
FTUS44 KMEG 290500
TAFMEM
TAF
KMEM 290536Z 2906/3006 01006KT P6SM SCT080 SCT250
     FM291500 02009KT P6SM FEW060 SCT250
     FM300000 05004KT P6SM BKN250=



000
FTUS44 KMEG 290500
TAFMKL
TAF
KMKL 290536Z 2906/3006 35005KT P6SM FEW080 SCT250
     FM291500 01007KT P6SM FEW060 SCT250
     FM300000 VRB02KT P6SM BKN250=



000
FTUS44 KMEG 290200 AAA
TAFMEM
TAF AMD
KMEM 290259Z 2903/2924 01006KT P6SM SCT080 SCT250
     FM291500 02009KT P6SM SCT250=



000
FTUS44 KMEG 282300
TAFMKL
TAF
KMKL 282320Z 2900/2924 35006KT P6SM FEW050
     FM291500 01008KT P6SM FEW050 FEW250=



000
FTUS44 KMEG 282300
TAFJBR
TAF
KJBR 282320Z 2900/2924 36005KT P6SM FEW050 FEW250
     FM291500 02007KT P6SM FEW250=



000
FTUS44 KMEG 282300
TAFMEM
TAF
KMEM 282320Z 2900/2924 01006KT P6SM FEW050 SCT250
     FM291500 02009KT P6SM SCT250=



000
FTUS44 KMEG 282300
TAFTUP
TAF
KTUP 282320Z 2900/2924 36005KT P6SM FEW050
     FM291500 02008KT P6SM FEW050 SCT250=



000
FTUS44 KMEG 282000 AAA
TAFMEM
TAF AMD
KMEM 282038Z 2821/2918 34011KT P6SM FEW045 SCT250
     FM290100 03004KT P6SM SKC
     FM291500 01007KT P6SM SKC=



000
FTUS44 KMEG 281700
TAFMEM
TAF
KMEM 281728Z 2818/2918 34010KT P6SM FEW040 SCT250
     FM290100 03004KT P6SM SKC
     FM291500 01007KT P6SM SKC=



000
FTUS44 KMEG 281700
TAFJBR
TAF
KJBR 281728Z 2818/2918 35009KT P6SM FEW050
     FM290100 02003KT P6SM SKC
     FM291500 03007KT P6SM SKC=



000
FTUS44 KMEG 281700
TAFMKL
TAF
KMKL 281728Z 2818/2918 34010KT P6SM SCT040
     FM290100 35002KT P6SM SKC
     FM291500 01007KT P6SM SKC=



000
FTUS44 KMEG 281700
TAFTUP
TAF
KTUP 281728Z 2818/2918 02010KT P6SM FEW050
     FM290100 01003KT P6SM SKC
     FM291500 03007KT P6SM SKC=



000
FTUS44 KMEG 281500 AAA
TAFMEM
TAF AMD
KMEM 281500Z 2815/2912 35007KT P6SM SKC
     FM281600 35010KT P6SM FEW050
     FM290200 03005KT P6SM SKC=



000
FTUS44 KMEG 281100
TAFMKL
TAF
KMKL 281123Z 2812/2912 34005KT P6SM SKC
     FM281600 35010KT P6SM FEW050
     FM290100 35003KT P6SM SKC=



000
FTUS44 KMEG 281100
TAFJBR
TAF
KJBR 281123Z 2812/2912 33003KT P6SM SKC
     FM281600 34010KT P6SM FEW050
     FM290000 02005KT P6SM SKC=



000
FTUS44 KMEG 281100
TAFMEM
TAF
KMEM 281123Z 2812/2912 02005KT P6SM FEW150
     FM281600 35010KT P6SM FEW050
     FM290200 03005KT P6SM SKC=



000
FTUS44 KMEG 281100
TAFTUP
TAF
KTUP 281123Z 2812/2912 02010KT P6SM FEW050
     FM290100 01005KT P6SM SKC=



000
FTUS44 KMEG 280900 AAA
TAFMEM
TAF AMD
KMEM 280901Z 2809/2906 36010KT P6SM SKC
     FM281600 35010KT P6SM FEW050
     FM290000 01007KT P6SM SKC=



000
FTUS44 KMEG 280500
TAFJBR
TAF
KJBR 280526Z 2806/2906 30005KT P6SM SKC
     FM280900 34008KT P6SM SKC
     FM281600 35010KT P6SM FEW050
     FM290000 01007KT P6SM SKC=



000
FTUS44 KMEG 280500
TAFMKL
TAF
KMKL 280526Z 2806/2906 28007KT P6SM SCT050
     FM280800 32005KT P6SM SKC
     FM281600 35010KT P6SM FEW050
     FM290000 01005KT P6SM SKC=



000
FTUS44 KMEG 280500
TAFTUP
TAF
KTUP 280526Z 2806/2906 28005KT P6SM SCT045 BKN060
     FM281100 33005KT P6SM SKC
     FM281600 35010KT P6SM FEW050
     FM290000 36005KT P6SM SKC=



000
FTUS44 KMEG 280500
TAFMEM
TAF
KMEM 280526Z 2806/2906 26005KT P6SM SCT050
     FM280900 34005KT P6SM SKC
     FM281600 35010KT P6SM FEW050
     FM290000 01007KT P6SM SKC=



000
FTUS44 KMEG 280300 AAA
TAFMEM
TAF AMD
KMEM 280303Z 2803/2824 25005KT P6SM SCT035 SCT150
     FM280600 32008KT P6SM SCT035 SCT150
     FM281000 34005KT P6SM SKC
     FM281600 34010KT P6SM FEW050=



000
FTUS44 KMEG 280000 AAA
TAFMKL
TAF AMD
KMKL 280030Z 2801/2824 25008KT P6SM VCSH SCT035 BKN100
     FM280400 34010KT P6SM SCT120
     FM280900 32002KT P6SM SKC
     FM281600 35009KT P6SM FEW050=



000
FTUS44 KMEG 272300
TAFMKL
TAF
KMKL 272331Z 2800/2824 25008KT P6SM VCSH SCT035 BKN100
      TEMPO 2800/2801 -SHRA BKN045
     FM280400 34010KT P6SM SCT120
     FM280900 32002KT P6SM SKC
     FM281600 35009KT P6SM FEW050=



000
FTUS44 KMEG 272300
TAFMEM
TAF
KMEM 272331Z 2800/2824 24009KT P6SM VCTS SCT035CB BKN100
     FM280600 33010KT P6SM SCT120
     FM281000 34005KT P6SM SKC
     FM281600 34010KT P6SM FEW050=



000
FTUS44 KMEG 272300
TAFJBR
TAF
KJBR 272331Z 2800/2824 27006KT P6SM VCSH FEW045 BKN100
     FM280300 34010KT P6SM SCT120
     FM280800 34005KT P6SM SKC
     FM281600 34010KT P6SM FEW050=



000
FTUS44 KMEG 272300
TAFTUP
TAF
KTUP 272331Z 2800/2824 25007KT P6SM SCT045 BKN150
     FM280500 34010KT P6SM VCTS SCT035CB BKN100
     FM281100 34005KT P6SM SCT035 SCT120
     FM281600 35010KT P6SM FEW050=



000
FTUS44 KMEG 272200 AAA
TAFJBR
TAF AMD
KJBR 272229Z 2722/2818 27010KT P6SM VCTS SCT035CB BKN100
      TEMPO 2722/2723 2SM -TSRA BKN035CB
     FM280000 27011KT P6SM FEW050
     FM280300 34010KT P6SM SKC=



000
FTUS44 KMEG 272000 AAC
TAFMEM
TAF AMD
KMEM 272056Z 2721/2818 23012G20KT P6SM BKN150 OVC200
     FM280000 24010G17KT P6SM VCTS FEW045CB BKN150
     FM280200 26008KT P6SM FEW040 BKN050 OVC120
     FM280500 34011KT P6SM SCT120
     FM281000 36005KT P6SM SKC
     FM281500 36010KT P6SM SKC=



000
FTUS44 KMEG 272000 AAB
TAFTUP
TAF AMD
KTUP 272033Z 2721/2818 24008G16KT P6SM SCT150 BKN200
     FM280100 22008KT P6SM BKN150
     FM280700 32006KT P6SM VCTS FEW050CB BKN200
     FM281000 01005KT P6SM SCT200
     FM281400 02009KT P6SM SKC=



000
FTUS44 KMEG 272000 AAA
TAFMKL
TAF AMD
KMKL 272030Z 2721/2818 23010G18KT P6SM SCT040 BKN200
     FM272330 25014G22KT P6SM VCTS SCT045CB BKN250
      TEMPO 2800/2801 VRB10G25KT 4SM -TSRA BKN045CB
     FM280200 26009KT P6SM BKN045
     FM280400 34010KT P6SM SCT050
     FM280900 32002KT P6SM SKC
     FM281500 35009KT P6SM SKC=



000
FTUS44 KMEG 272000 AAB
TAFMEM
TAF AMD
KMEM 272027Z 2720/2818 23012G20KT P6SM BKN150 OVC200
     FM280000 24010G17KT P6SM VCTS FEW045CB BKN150
     FM280200 26008KT P6SM FEW040 BKN050 OVC120
     FM280500 34011KT P6SM SCT120
     FM281000 36005KT P6SM SKC
     FM281500 36010KT P6SM SKC=



000
FTUS44 KMEG 272000 AAA
TAFTUP
TAF AMD
KTUP 272003Z 2720/2818 25010G16KT P6SM SCT045 SCT200
     FM280100 25008KT P6SM SCT080 BKN150
     FM280600 35005KT P6SM VCSH SCT050 BKN200
     FM281400 02009KT P6SM SKC=



000
FTUS44 KMEG 271800 AAA
TAFMEM
TAF AMD
KMEM 271849Z 2719/2818 24012G18KT P6SM FEW040 BKN150
     FM272200 25014G21KT P6SM VCTS FEW045CB BKN150
     FM280100 26009KT P6SM SCT045 BKN120
     FM280400 34011KT P6SM SCT120
     FM281000 36005KT P6SM SKC
     FM281500 36010KT P6SM SKC=



000
FTUS44 KMEG 271700
TAFTUP
TAF
KTUP 271721Z 2718/2818 26011G17KT P6SM SCT040 SCT200
     FM280100 25008KT P6SM SCT200
     FM280600 35005KT P6SM SKC
     FM281500 02009KT P6SM SKC=



000
FTUS44 KMEG 271700
TAFMEM
TAF
KMEM 271721Z 2718/2818 25010G18KT P6SM FEW040 SCT200
     FM272200 25012G20KT P6SM VCTS FEW045CB SCT200
     FM280000 26009KT P6SM SCT045
     FM280400 34011KT P6SM FEW050
     FM281000 36005KT P6SM SKC
     FM281500 36010KT P6SM SKC=



000
FTUS44 KMEG 271700
TAFJBR
TAF
KJBR 271721Z 2718/2818 26013G20KT P6SM FEW040 BKN200
     FM272100 25015G22KT P6SM VCTS SCT045CB BKN100
     FM280000 27011KT P6SM FEW050
     FM280300 34010KT P6SM SKC=



000
FTUS44 KMEG 271700
TAFMKL
TAF
KMKL 271721Z 2718/2818 23010G18KT P6SM FEW040
     FM272100 25014G22KT P6SM VCTS SCT045CB BKN250
      TEMPO 2722/2724 VRB15G30KT 3SM TSRA SCT045CB
     FM280100 26009KT P6SM BKN045
     FM280400 34010KT P6SM SCT050
     FM280900 32002KT P6SM SKC
     FM281500 35009KT P6SM SKC=



    US Dept of Commerce
    National Oceanic and Atmospheric Administration
    National Weather Service
    1325 East West Highway
    Silver Spring, MD 20910
    Page Author: NWS Internet Services Team
Disclaimer
Information Quality
Credits
Glossary
Privacy Policy
Freedom of Information Act (FOIA)
About Us
Career Opportunities